sensor_id;sensor_type;location;lat;lon;timestamp;P1;durP1;ratioP1;P2;durP2;ratioP2
29382;SDS011;16365;51.598;7.668;2022-12-20T00:01:19;5.38;;;3.05;;
29382;SDS011;16365;51.598;7.668;2022-12-20T00:03:48;6.35;;;3.25;;
29382;SDS011;16365;51.598;7.668;2022-12-20T00:06:16;7.25;;;3.63;;
29382;SDS011;16365;51.598;7.668;2022-12-20T00:08:44;5.43;;;2.88;;
29382;SDS011;16365;51.598;7.668;2022-12-20T00:11:11;4.82;;;2.95;;
29382;SDS011;16365;51.598;7.668;2022-12-20T00:13:38;4.43;;;2.55;;
29382;SDS011;16365;51.598;7.668;2022-12-20T00:16:05;4.45;;;2.67;;
29382;SDS011;16365;51.598;7.668;2022-12-20T00:18:34;6.65;;;3.00;;
29382;SDS011;16365;51.598;7.668;2022-12-20T00:21:02;4.20;;;3.13;;
29382;SDS011;16365;51.598;7.668;2022-12-20T00:23:29;10.73;;;2.97;;
29382;SDS011;16365;51.598;7.668;2022-12-20T00:26:03;7.47;;;3.10;;
29382;SDS011;16365;51.598;7.668;2022-12-20T00:28:31;5.53;;;2.80;;
29382;SDS011;16365;51.598;7.668;2022-12-20T00:33:27;10.45;;;3.17;;
29382;SDS011;16365;51.598;7.668;2022-12-20T00:35:54;5.10;;;3.08;;
29382;SDS011;16365;51.598;7.668;2022-12-20T00:38:22;7.83;;;2.87;;
29382;SDS011;16365;51.598;7.668;2022-12-20T00:41:02;3.73;;;2.57;;
29382;SDS011;16365;51.598;7.668;2022-12-20T00:43:32;4.75;;;2.92;;
29382;SDS011;16365;51.598;7.668;2022-12-20T00:45:59;5.93;;;2.93;;
29382;SDS011;16365;51.598;7.668;2022-12-20T00:48:26;6.07;;;2.72;;
29382;SDS011;16365;51.598;7.668;2022-12-20T00:50:57;5.03;;;2.97;;
29382;SDS011;16365;51.598;7.668;2022-12-20T00:53:26;7.55;;;3.20;;
29382;SDS011;16365;51.598;7.668;2022-12-20T00:55:53;5.30;;;3.08;;
29382;SDS011;16365;51.598;7.668;2022-12-20T00:58:20;5.43;;;2.90;;
29382;SDS011;16365;51.598;7.668;2022-12-20T01:00:46;5.68;;;2.78;;
29382;SDS011;16365;51.598;7.668;2022-12-20T01:03:21;5.97;;;2.90;;
29382;SDS011;16365;51.598;7.668;2022-12-20T01:05:49;4.50;;;2.60;;
29382;SDS011;16365;51.598;7.668;2022-12-20T01:08:20;5.68;;;2.28;;
29382;SDS011;16365;51.598;7.668;2022-12-20T01:10:57;3.70;;;2.63;;
29382;SDS011;16365;51.598;7.668;2022-12-20T01:13:32;5.45;;;2.75;;
29382;SDS011;16365;51.598;7.668;2022-12-20T01:16:06;3.60;;;2.40;;
29382;SDS011;16365;51.598;7.668;2022-12-20T01:18:35;3.58;;;2.30;;
29382;SDS011;16365;51.598;7.668;2022-12-20T01:21:03;4.00;;;2.50;;
29382;SDS011;16365;51.598;7.668;2022-12-20T01:23:31;3.70;;;2.30;;
29382;SDS011;16365;51.598;7.668;2022-12-20T01:26:01;7.55;;;2.40;;
29382;SDS011;16365;51.598;7.668;2022-12-20T01:28:30;9.15;;;3.10;;
29382;SDS011;16365;51.598;7.668;2022-12-20T01:30:57;3.63;;;2.50;;
29382;SDS011;16365;51.598;7.668;2022-12-20T01:33:24;5.45;;;2.70;;
29382;SDS011;16365;51.598;7.668;2022-12-20T01:35:57;5.85;;;2.50;;
29382;SDS011;16365;51.598;7.668;2022-12-20T01:38:26;5.28;;;2.80;;
29382;SDS011;16365;51.598;7.668;2022-12-20T01:40:53;5.83;;;2.50;;
29382;SDS011;16365;51.598;7.668;2022-12-20T01:43:20;3.90;;;2.53;;
29382;SDS011;16365;51.598;7.668;2022-12-20T01:45:47;4.20;;;2.28;;
29382;SDS011;16365;51.598;7.668;2022-12-20T01:48:15;4.22;;;2.35;;
29382;SDS011;16365;51.598;7.668;2022-12-20T01:50:45;3.55;;;2.55;;
29382;SDS011;16365;51.598;7.668;2022-12-20T01:53:13;5.28;;;2.85;;
29382;SDS011;16365;51.598;7.668;2022-12-20T01:55:41;5.10;;;2.45;;
29382;SDS011;16365;51.598;7.668;2022-12-20T01:58:08;4.47;;;2.38;;
29382;SDS011;16365;51.598;7.668;2022-12-20T02:00:38;4.15;;;2.33;;
29382;SDS011;16365;51.598;7.668;2022-12-20T02:03:07;3.60;;;2.30;;
29382;SDS011;16365;51.598;7.668;2022-12-20T02:05:39;6.72;;;2.55;;
29382;SDS011;16365;51.598;7.668;2022-12-20T02:08:07;4.15;;;2.25;;
29382;SDS011;16365;51.598;7.668;2022-12-20T02:10:57;6.22;;;2.78;;
29382;SDS011;16365;51.598;7.668;2022-12-20T02:13:52;4.93;;;2.45;;
29382;SDS011;16365;51.598;7.668;2022-12-20T02:16:29;5.32;;;2.53;;
29382;SDS011;16365;51.598;7.668;2022-12-20T02:22:15;5.05;;;;;
29382;SDS011;16365;51.598;7.668;2022-12-20T02:28:30;6.40;;;2.50;;
29382;SDS011;16365;51.598;7.668;2022-12-20T02:31:13;6.25;;;2.90;;
29382;SDS011;16365;51.598;7.668;2022-12-20T02:33:45;7.25;;;2.53;;
29382;SDS011;16365;51.598;7.668;2022-12-20T02:36:17;5.72;;;2.45;;
29382;SDS011;16365;51.598;7.668;2022-12-20T02:38:44;5.35;;;2.40;;
29382;SDS011;16365;51.598;7.668;2022-12-20T02:41:17;4.35;;;2.50;;
29382;SDS011;16365;51.598;7.668;2022-12-20T02:43:50;4.55;;;2.22;;
29382;SDS011;16365;51.598;7.668;2022-12-20T02:46:38;6.47;;;2.40;;
29382;SDS011;16365;51.598;7.668;2022-12-20T02:49:08;6.03;;;2.72;;
29382;SDS011;16365;51.598;7.668;2022-12-20T02:51:39;3.83;;;2.45;;
29382;SDS011;16365;51.598;7.668;2022-12-20T02:54:10;4.75;;;2.80;;
29382;SDS011;16365;51.598;7.668;2022-12-20T02:56:38;6.10;;;3.35;;
29382;SDS011;16365;51.598;7.668;2022-12-20T02:59:17;4.55;;;2.08;;
29382;SDS011;16365;51.598;7.668;2022-12-20T03:01:51;4.53;;;2.20;;
29382;SDS011;16365;51.598;7.668;2022-12-20T03:04:21;6.30;;;2.85;;
29382;SDS011;16365;51.598;7.668;2022-12-20T03:06:55;4.72;;;2.30;;
29382;SDS011;16365;51.598;7.668;2022-12-20T03:09:33;4.78;;;2.25;;
29382;SDS011;16365;51.598;7.668;2022-12-20T03:12:03;6.20;;;2.90;;
29382;SDS011;16365;51.598;7.668;2022-12-20T03:14:31;5.30;;;2.55;;
29382;SDS011;16365;51.598;7.668;2022-12-20T03:16:57;4.90;;;2.55;;
29382;SDS011;16365;51.598;7.668;2022-12-20T03:19:24;5.20;;;2.72;;
29382;SDS011;16365;51.598;7.668;2022-12-20T03:21:50;6.50;;;2.75;;
29382;SDS011;16365;51.598;7.668;2022-12-20T03:24:17;6.30;;;3.17;;
29382;SDS011;16365;51.598;7.668;2022-12-20T03:26:46;5.28;;;2.65;;
29382;SDS011;16365;51.598;7.668;2022-12-20T03:29:13;7.05;;;2.83;;
29382;SDS011;16365;51.598;7.668;2022-12-20T03:31:39;6.13;;;2.63;;
29382;SDS011;16365;51.598;7.668;2022-12-20T03:34:06;5.75;;;2.90;;
29382;SDS011;16365;51.598;7.668;2022-12-20T03:36:32;4.40;;;2.30;;
29382;SDS011;16365;51.598;7.668;2022-12-20T03:38:59;4.85;;;2.88;;
29382;SDS011;16365;51.598;7.668;2022-12-20T03:41:26;7.93;;;3.15;;
29382;SDS011;16365;51.598;7.668;2022-12-20T03:43:52;7.05;;;2.83;;
29382;SDS011;16365;51.598;7.668;2022-12-20T03:46:19;5.85;;;3.00;;
29382;SDS011;16365;51.598;7.668;2022-12-20T03:48:46;7.70;;;3.00;;
29382;SDS011;16365;51.598;7.668;2022-12-20T03:51:12;4.45;;;2.45;;
29382;SDS011;16365;51.598;7.668;2022-12-20T03:53:38;6.88;;;3.15;;
29382;SDS011;16365;51.598;7.668;2022-12-20T03:56:05;5.20;;;3.40;;
29382;SDS011;16365;51.598;7.668;2022-12-20T03:58:31;5.90;;;3.08;;
29382;SDS011;16365;51.598;7.668;2022-12-20T04:00:58;5.57;;;2.95;;
29382;SDS011;16365;51.598;7.668;2022-12-20T04:03:24;8.27;;;3.15;;
29382;SDS011;16365;51.598;7.668;2022-12-20T04:05:51;5.75;;;2.90;;
29382;SDS011;16365;51.598;7.668;2022-12-20T04:08:18;9.90;;;2.75;;
29382;SDS011;16365;51.598;7.668;2022-12-20T04:10:44;4.47;;;3.10;;
29382;SDS011;16365;51.598;7.668;2022-12-20T04:13:29;4.70;;;2.88;;
29382;SDS011;16365;51.598;7.668;2022-12-20T04:15:56;4.28;;;2.72;;
29382;SDS011;16365;51.598;7.668;2022-12-20T04:18:26;7.28;;;2.92;;
29382;SDS011;16365;51.598;7.668;2022-12-20T04:20:52;6.35;;;2.92;;
29382;SDS011;16365;51.598;7.668;2022-12-20T04:23:19;6.38;;;3.15;;
29382;SDS011;16365;51.598;7.668;2022-12-20T04:25:45;4.32;;;2.88;;
29382;SDS011;16365;51.598;7.668;2022-12-20T04:28:12;9.52;;;3.55;;
29382;SDS011;16365;51.598;7.668;2022-12-20T04:30:39;5.43;;;2.92;;
29382;SDS011;16365;51.598;7.668;2022-12-20T04:33:05;4.38;;;2.85;;
29382;SDS011;16365;51.598;7.668;2022-12-20T04:35:32;5.63;;;3.10;;
29382;SDS011;16365;51.598;7.668;2022-12-20T04:37:58;6.88;;;3.03;;
29382;SDS011;16365;51.598;7.668;2022-12-20T04:40:25;5.60;;;2.90;;
29382;SDS011;16365;51.598;7.668;2022-12-20T04:42:51;6.35;;;3.30;;
29382;SDS011;16365;51.598;7.668;2022-12-20T04:45:18;4.38;;;3.05;;
29382;SDS011;16365;51.598;7.668;2022-12-20T04:47:44;4.00;;;2.70;;
29382;SDS011;16365;51.598;7.668;2022-12-20T04:50:10;7.75;;;2.85;;
29382;SDS011;16365;51.598;7.668;2022-12-20T04:52:37;4.72;;;2.97;;
29382;SDS011;16365;51.598;7.668;2022-12-20T04:55:22;5.75;;;2.83;;
29382;SDS011;16365;51.598;7.668;2022-12-20T04:57:48;9.15;;;3.15;;
29382;SDS011;16365;51.598;7.668;2022-12-20T05:00:15;7.80;;;2.97;;
29382;SDS011;16365;51.598;7.668;2022-12-20T05:02:43;9.27;;;3.30;;
29382;SDS011;16365;51.598;7.668;2022-12-20T05:05:10;5.78;;;3.17;;
29382;SDS011;16365;51.598;7.668;2022-12-20T05:07:36;4.55;;;3.30;;
29382;SDS011;16365;51.598;7.668;2022-12-20T05:10:03;7.75;;;2.90;;
29382;SDS011;16365;51.598;7.668;2022-12-20T05:12:30;8.50;;;2.92;;
29382;SDS011;16365;51.598;7.668;2022-12-20T05:14:56;5.38;;;2.90;;
29382;SDS011;16365;51.598;7.668;2022-12-20T05:17:23;7.32;;;3.53;;
29382;SDS011;16365;51.598;7.668;2022-12-20T05:19:51;5.38;;;3.00;;
29382;SDS011;16365;51.598;7.668;2022-12-20T05:22:17;6.43;;;3.20;;
29382;SDS011;16365;51.598;7.668;2022-12-20T05:25:02;7.32;;;3.58;;
29382;SDS011;16365;51.598;7.668;2022-12-20T05:27:47;10.85;;;4.10;;
29382;SDS011;16365;51.598;7.668;2022-12-20T05:30:13;8.55;;;3.50;;
29382;SDS011;16365;51.598;7.668;2022-12-20T05:32:41;7.15;;;3.53;;
29382;SDS011;16365;51.598;7.668;2022-12-20T05:35:07;6.60;;;3.60;;
29382;SDS011;16365;51.598;7.668;2022-12-20T05:37:34;6.82;;;3.50;;
29382;SDS011;16365;51.598;7.668;2022-12-20T05:40:00;5.65;;;3.28;;
29382;SDS011;16365;51.598;7.668;2022-12-20T05:42:27;5.68;;;3.53;;
29382;SDS011;16365;51.598;7.668;2022-12-20T05:44:53;6.00;;;3.47;;
29382;SDS011;16365;51.598;7.668;2022-12-20T05:47:20;6.07;;;3.38;;
29382;SDS011;16365;51.598;7.668;2022-12-20T05:49:46;8.50;;;4.22;;
29382;SDS011;16365;51.598;7.668;2022-12-20T05:52:13;6.57;;;3.95;;
29382;SDS011;16365;51.598;7.668;2022-12-20T05:54:39;6.65;;;3.17;;
29382;SDS011;16365;51.598;7.668;2022-12-20T05:57:06;7.05;;;3.63;;
29382;SDS011;16365;51.598;7.668;2022-12-20T05:59:32;8.32;;;3.80;;
29382;SDS011;16365;51.598;7.668;2022-12-20T06:01:58;6.30;;;3.53;;
29382;SDS011;16365;51.598;7.668;2022-12-20T06:04:25;4.60;;;3.00;;
29382;SDS011;16365;51.598;7.668;2022-12-20T06:06:52;5.22;;;3.15;;
29382;SDS011;16365;51.598;7.668;2022-12-20T06:09:18;4.32;;;2.97;;
29382;SDS011;16365;51.598;7.668;2022-12-20T06:11:45;6.53;;;3.20;;
29382;SDS011;16365;51.598;7.668;2022-12-20T06:14:12;6.25;;;3.20;;
29382;SDS011;16365;51.598;7.668;2022-12-20T06:16:38;12.13;;;3.50;;
29382;SDS011;16365;51.598;7.668;2022-12-20T06:19:05;4.95;;;3.05;;
29382;SDS011;16365;51.598;7.668;2022-12-20T06:21:32;6.80;;;3.35;;
29382;SDS011;16365;51.598;7.668;2022-12-20T06:23:58;4.78;;;2.95;;
29382;SDS011;16365;51.598;7.668;2022-12-20T06:26:26;5.95;;;3.30;;
29382;SDS011;16365;51.598;7.668;2022-12-20T06:28:54;7.77;;;3.90;;
29382;SDS011;16365;51.598;7.668;2022-12-20T06:31:22;5.70;;;2.83;;
29382;SDS011;16365;51.598;7.668;2022-12-20T06:33:48;5.57;;;3.20;;
29382;SDS011;16365;51.598;7.668;2022-12-20T06:36:14;8.57;;;2.80;;
29382;SDS011;16365;51.598;7.668;2022-12-20T06:38:41;4.43;;;2.70;;
29382;SDS011;16365;51.598;7.668;2022-12-20T06:41:07;8.10;;;3.28;;
29382;SDS011;16365;51.598;7.668;2022-12-20T06:43:34;4.47;;;2.90;;
29382;SDS011;16365;51.598;7.668;2022-12-20T06:46:00;3.78;;;2.70;;
29382;SDS011;16365;51.598;7.668;2022-12-20T06:48:26;5.93;;;2.78;;
29382;SDS011;16365;51.598;7.668;2022-12-20T06:50:53;8.02;;;2.92;;
29382;SDS011;16365;51.598;7.668;2022-12-20T06:53:21;7.40;;;2.60;;
29382;SDS011;16365;51.598;7.668;2022-12-20T06:55:49;4.65;;;2.95;;
29382;SDS011;16365;51.598;7.668;2022-12-20T06:58:16;4.70;;;2.77;;
29382;SDS011;16365;51.598;7.668;2022-12-20T07:00:43;6.40;;;3.03;;
29382;SDS011;16365;51.598;7.668;2022-12-20T07:03:10;6.88;;;3.60;;
29382;SDS011;16365;51.598;7.668;2022-12-20T07:05:37;7.65;;;2.88;;
29382;SDS011;16365;51.598;7.668;2022-12-20T07:08:03;4.95;;;3.10;;
29382;SDS011;16365;51.598;7.668;2022-12-20T07:10:30;5.05;;;2.63;;
29382;SDS011;16365;51.598;7.668;2022-12-20T07:12:59;5.05;;;2.60;;
29382;SDS011;16365;51.598;7.668;2022-12-20T07:15:25;5.25;;;2.88;;
29382;SDS011;16365;51.598;7.668;2022-12-20T07:17:52;4.43;;;2.53;;
29382;SDS011;16365;51.598;7.668;2022-12-20T07:20:18;3.47;;;2.22;;
29382;SDS011;16365;51.598;7.668;2022-12-20T07:22:48;5.05;;;2.78;;
29382;SDS011;16365;51.598;7.668;2022-12-20T07:25:14;4.88;;;2.50;;
29382;SDS011;16365;51.598;7.668;2022-12-20T07:27:41;4.57;;;2.60;;
29382;SDS011;16365;51.598;7.668;2022-12-20T07:30:08;3.97;;;2.33;;
29382;SDS011;16365;51.598;7.668;2022-12-20T07:32:35;5.45;;;2.50;;
29382;SDS011;16365;51.598;7.668;2022-12-20T07:35:02;6.07;;;2.50;;
29382;SDS011;16365;51.598;7.668;2022-12-20T07:37:29;6.55;;;2.70;;
29382;SDS011;16365;51.598;7.668;2022-12-20T07:39:55;4.00;;;2.50;;
29382;SDS011;16365;51.598;7.668;2022-12-20T07:42:22;9.88;;;2.63;;
29382;SDS011;16365;51.598;7.668;2022-12-20T07:44:49;6.40;;;3.05;;
29382;SDS011;16365;51.598;7.668;2022-12-20T07:47:15;4.32;;;2.40;;
29382;SDS011;16365;51.598;7.668;2022-12-20T07:49:42;6.40;;;2.55;;
29382;SDS011;16365;51.598;7.668;2022-12-20T07:52:08;6.95;;;3.35;;
29382;SDS011;16365;51.598;7.668;2022-12-20T07:54:42;6.07;;;2.70;;
29382;SDS011;16365;51.598;7.668;2022-12-20T08:00:13;6.75;;;2.22;;
29382;SDS011;16365;51.598;7.668;2022-12-20T08:02:51;6.60;;;2.67;;
29382;SDS011;16365;51.598;7.668;2022-12-20T08:05:40;4.85;;;2.78;;
29382;SDS011;16365;51.598;7.668;2022-12-20T08:08:09;8.75;;;2.55;;
29382;SDS011;16365;51.598;7.668;2022-12-20T08:10:36;4.28;;;2.35;;
29382;SDS011;16365;51.598;7.668;2022-12-20T08:13:04;5.28;;;2.25;;
29382;SDS011;16365;51.598;7.668;2022-12-20T08:15:31;5.97;;;3.20;;
29382;SDS011;16365;51.598;7.668;2022-12-20T08:20:26;7.10;;;3.50;;
29382;SDS011;16365;51.598;7.668;2022-12-20T08:22:52;5.22;;;2.63;;
29382;SDS011;16365;51.598;7.668;2022-12-20T08:25:20;5.00;;;3.03;;
29382;SDS011;16365;51.598;7.668;2022-12-20T08:27:46;4.93;;;2.93;;
29382;SDS011;16365;51.598;7.668;2022-12-20T08:30:13;6.38;;;2.95;;
29382;SDS011;16365;51.598;7.668;2022-12-20T08:32:40;4.43;;;2.42;;
29382;SDS011;16365;51.598;7.668;2022-12-20T08:35:06;3.88;;;2.30;;
29382;SDS011;16365;51.598;7.668;2022-12-20T08:37:33;10.82;;;2.55;;
29382;SDS011;16365;51.598;7.668;2022-12-20T08:39:59;4.20;;;2.33;;
29382;SDS011;16365;51.598;7.668;2022-12-20T08:42:26;4.40;;;2.30;;
29382;SDS011;16365;51.598;7.668;2022-12-20T08:44:54;6.15;;;2.25;;
29382;SDS011;16365;51.598;7.668;2022-12-20T08:47:20;6.07;;;2.50;;
29382;SDS011;16365;51.598;7.668;2022-12-20T08:49:47;5.85;;;2.47;;
29382;SDS011;16365;51.598;7.668;2022-12-20T08:52:13;4.57;;;2.45;;
29382;SDS011;16365;51.598;7.668;2022-12-20T08:54:40;3.60;;;2.20;;
29382;SDS011;16365;51.598;7.668;2022-12-20T08:57:06;4.75;;;2.40;;
29382;SDS011;16365;51.598;7.668;2022-12-20T08:59:33;5.43;;;2.67;;
29382;SDS011;16365;51.598;7.668;2022-12-20T09:02:00;9.82;;;2.38;;
29382;SDS011;16365;51.598;7.668;2022-12-20T09:04:26;5.00;;;2.47;;
29382;SDS011;16365;51.598;7.668;2022-12-20T09:06:53;4.30;;;2.42;;
29382;SDS011;16365;51.598;7.668;2022-12-20T09:09:19;8.48;;;2.63;;
29382;SDS011;16365;51.598;7.668;2022-12-20T09:11:46;6.25;;;2.67;;
29382;SDS011;16365;51.598;7.668;2022-12-20T09:14:12;6.65;;;2.20;;
29382;SDS011;16365;51.598;7.668;2022-12-20T09:16:39;4.65;;;2.20;;
29382;SDS011;16365;51.598;7.668;2022-12-20T09:19:05;5.22;;;2.60;;
29382;SDS011;16365;51.598;7.668;2022-12-20T09:21:32;4.15;;;2.30;;
29382;SDS011;16365;51.598;7.668;2022-12-20T09:24:00;6.65;;;2.75;;
29382;SDS011;16365;51.598;7.668;2022-12-20T09:26:26;5.90;;;2.35;;
29382;SDS011;16365;51.598;7.668;2022-12-20T09:28:53;4.15;;;2.42;;
29382;SDS011;16365;51.598;7.668;2022-12-20T09:31:20;3.85;;;2.42;;
29382;SDS011;16365;51.598;7.668;2022-12-20T09:33:54;3.13;;;2.03;;
29382;SDS011;16365;51.598;7.668;2022-12-20T09:36:23;3.45;;;2.28;;
29382;SDS011;16365;51.598;7.668;2022-12-20T09:38:50;4.43;;;2.22;;
29382;SDS011;16365;51.598;7.668;2022-12-20T09:41:36;4.50;;;2.17;;
29382;SDS011;16365;51.598;7.668;2022-12-20T09:44:18;5.22;;;2.88;;
29382;SDS011;16365;51.598;7.668;2022-12-20T09:46:51;8.43;;;2.90;;
29382;SDS011;16365;51.598;7.668;2022-12-20T09:49:32;5.75;;;2.58;;
29382;SDS011;16365;51.598;7.668;2022-12-20T09:54:53;6.13;;;2.58;;
29382;SDS011;16365;51.598;7.668;2022-12-20T10:00:20;3.47;;;2.30;;
29382;SDS011;16365;51.598;7.668;2022-12-20T10:02:46;5.15;;;2.67;;
29382;SDS011;16365;51.598;7.668;2022-12-20T10:05:37;4.93;;;2.60;;
29382;SDS011;16365;51.598;7.668;2022-12-20T10:08:23;4.60;;;2.05;;
29382;SDS011;16365;51.598;7.668;2022-12-20T10:16:51;6.47;;;2.55;;
29382;SDS011;16365;51.598;7.668;2022-12-20T10:19:34;5.60;;;2.20;;
29382;SDS011;16365;51.598;7.668;2022-12-20T10:22:15;6.07;;;2.72;;
29382;SDS011;16365;51.598;7.668;2022-12-20T10:25:30;8.30;;;2.50;;
29382;SDS011;16365;51.598;7.668;2022-12-20T10:27:51;4.93;;;2.20;;
29382;SDS011;16365;51.598;7.668;2022-12-20T10:30:24;4.35;;;2.63;;
29382;SDS011;16365;51.598;7.668;2022-12-20T10:32:52;6.88;;;2.67;;
29382;SDS011;16365;51.598;7.668;2022-12-20T10:35:22;2.72;;;2.05;;
29382;SDS011;16365;51.598;7.668;2022-12-20T10:40:39;7.28;;;2.47;;
29382;SDS011;16365;51.598;7.668;2022-12-20T10:43:42;6.32;;;2.47;;
29382;SDS011;16365;51.598;7.668;2022-12-20T10:46:10;3.65;;;2.00;;
29382;SDS011;16365;51.598;7.668;2022-12-20T10:48:40;6.25;;;2.20;;
29382;SDS011;16365;51.598;7.668;2022-12-20T10:53:55;4.68;;;2.72;;
29382;SDS011;16365;51.598;7.668;2022-12-20T10:56:26;3.33;;;2.28;;
29382;SDS011;16365;51.598;7.668;2022-12-20T11:01:43;4.32;;;2.17;;
29382;SDS011;16365;51.598;7.668;2022-12-20T11:06:59;5.40;;;2.30;;
29382;SDS011;16365;51.598;7.668;2022-12-20T11:14:39;6.20;;;2.72;;
29382;SDS011;16365;51.598;7.668;2022-12-20T11:30:05;8.93;;;3.45;;
29382;SDS011;16365;51.598;7.668;2022-12-20T11:32:45;6.13;;;2.00;;
29382;SDS011;16365;51.598;7.668;2022-12-20T11:35:46;6.05;;;2.53;;
29382;SDS011;16365;51.598;7.668;2022-12-20T11:38:35;2.95;;;2.00;;
29382;SDS011;16365;51.598;7.668;2022-12-20T11:44:16;3.50;;;2.10;;
29382;SDS011;16365;51.598;7.668;2022-12-20T11:52:57;3.85;;;2.00;;
29382;SDS011;16365;51.598;7.668;2022-12-20T11:55:34;4.53;;;2.33;;
29382;SDS011;16365;51.598;7.668;2022-12-20T12:00:51;2.70;;;1.90;;
29382;SDS011;16365;51.598;7.668;2022-12-20T12:03:29;4.03;;;2.15;;
29382;SDS011;16365;51.598;7.668;2022-12-20T12:06:05;4.15;;;2.10;;
29382;SDS011;16365;51.598;7.668;2022-12-20T12:08:40;6.13;;;2.67;;
29382;SDS011;16365;51.598;7.668;2022-12-20T12:14:08;3.50;;;2.28;;
29382;SDS011;16365;51.598;7.668;2022-12-20T12:16:44;3.20;;;1.92;;
29382;SDS011;16365;51.598;7.668;2022-12-20T12:19:16;5.03;;;2.38;;
29382;SDS011;16365;51.598;7.668;2022-12-20T12:21:44;9.75;;;2.60;;
29382;SDS011;16365;51.598;7.668;2022-12-20T12:24:22;3.40;;;2.15;;
29382;SDS011;16365;51.598;7.668;2022-12-20T12:26:54;4.65;;;2.10;;
29382;SDS011;16365;51.598;7.668;2022-12-20T12:29:27;5.45;;;1.85;;
29382;SDS011;16365;51.598;7.668;2022-12-20T12:37:33;6.35;;;2.00;;
29382;SDS011;16365;51.598;7.668;2022-12-20T12:45:53;6.30;;;2.45;;
29382;SDS011;16365;51.598;7.668;2022-12-20T12:48:36;3.58;;;2.00;;
29382;SDS011;16365;51.598;7.668;2022-12-20T12:51:07;4.22;;;2.08;;
29382;SDS011;16365;51.598;7.668;2022-12-20T13:04:23;7.35;;;2.33;;
29382;SDS011;16365;51.598;7.668;2022-12-20T13:06:53;5.80;;;2.28;;
29382;SDS011;16365;51.598;7.668;2022-12-20T13:11:52;4.88;;;2.33;;
29382;SDS011;16365;51.598;7.668;2022-12-20T13:19:55;4.22;;;2.30;;
29382;SDS011;16365;51.598;7.668;2022-12-20T13:22:23;3.53;;;2.13;;
29382;SDS011;16365;51.598;7.668;2022-12-20T13:24:55;3.85;;;2.13;;
29382;SDS011;16365;51.598;7.668;2022-12-20T13:40:34;6.63;;;2.05;;
29382;SDS011;16365;51.598;7.668;2022-12-20T13:43:05;5.70;;;2.30;;
29382;SDS011;16365;51.598;7.668;2022-12-20T13:45:39;5.55;;;2.33;;
29382;SDS011;16365;51.598;7.668;2022-12-20T13:48:11;10.18;;;1.90;;
29382;SDS011;16365;51.598;7.668;2022-12-20T13:50:47;4.20;;;1.98;;
29382;SDS011;16365;51.598;7.668;2022-12-20T13:53:25;8.48;;;2.30;;
29382;SDS011;16365;51.598;7.668;2022-12-20T13:55:53;4.78;;;2.20;;
29382;SDS011;16365;51.598;7.668;2022-12-20T13:58:21;6.00;;;1.98;;
29382;SDS011;16365;51.598;7.668;2022-12-20T14:00:50;5.05;;;2.47;;
29382;SDS011;16365;51.598;7.668;2022-12-20T14:03:21;3.35;;;1.90;;
29382;SDS011;16365;51.598;7.668;2022-12-20T14:06:00;4.88;;;2.10;;
29382;SDS011;16365;51.598;7.668;2022-12-20T14:08:32;6.53;;;2.63;;
29382;SDS011;16365;51.598;7.668;2022-12-20T14:14:11;7.65;;;3.45;;
29382;SDS011;16365;51.598;7.668;2022-12-20T14:16:39;3.35;;;2.08;;
29382;SDS011;16365;51.598;7.668;2022-12-20T14:19:10;4.10;;;2.03;;
29382;SDS011;16365;51.598;7.668;2022-12-20T14:21:41;7.30;;;2.30;;
29382;SDS011;16365;51.598;7.668;2022-12-20T14:24:12;4.90;;;2.00;;
29382;SDS011;16365;51.598;7.668;2022-12-20T14:26:43;4.82;;;2.05;;
29382;SDS011;16365;51.598;7.668;2022-12-20T14:29:17;4.80;;;2.17;;
29382;SDS011;16365;51.598;7.668;2022-12-20T14:31:48;9.07;;;2.72;;
29382;SDS011;16365;51.598;7.668;2022-12-20T14:34:27;4.95;;;1.90;;
29382;SDS011;16365;51.598;7.668;2022-12-20T14:42:44;4.18;;;2.22;;
29382;SDS011;16365;51.598;7.668;2022-12-20T14:45:20;4.00;;;1.92;;
29382;SDS011;16365;51.598;7.668;2022-12-20T14:47:49;5.28;;;2.22;;
29382;SDS011;16365;51.598;7.668;2022-12-20T14:50:26;6.35;;;2.10;;
29382;SDS011;16365;51.598;7.668;2022-12-20T14:52:58;3.45;;;2.35;;
29382;SDS011;16365;51.598;7.668;2022-12-20T14:55:32;6.65;;;2.40;;
29382;SDS011;16365;51.598;7.668;2022-12-20T14:58:05;5.97;;;2.40;;
29382;SDS011;16365;51.598;7.668;2022-12-20T15:00:55;3.42;;;2.05;;
29382;SDS011;16365;51.598;7.668;2022-12-20T15:03:24;7.03;;;2.70;;
29382;SDS011;16365;51.598;7.668;2022-12-20T15:05:57;5.82;;;2.20;;
29382;SDS011;16365;51.598;7.668;2022-12-20T15:08:28;8.05;;;2.67;;
29382;SDS011;16365;51.598;7.668;2022-12-20T15:11:02;5.93;;;2.53;;
29382;SDS011;16365;51.598;7.668;2022-12-20T15:13:50;5.45;;;3.20;;
29382;SDS011;16365;51.598;7.668;2022-12-20T15:16:20;7.80;;;3.45;;
29382;SDS011;16365;51.598;7.668;2022-12-20T15:18:50;6.50;;;3.22;;
29382;SDS011;16365;51.598;7.668;2022-12-20T15:21:28;6.45;;;3.00;;
29382;SDS011;16365;51.598;7.668;2022-12-20T15:23:58;7.38;;;3.10;;
29382;SDS011;16365;51.598;7.668;2022-12-20T15:26:27;6.97;;;3.90;;
29382;SDS011;16365;51.598;7.668;2022-12-20T15:28:57;6.15;;;3.53;;
29382;SDS011;16365;51.598;7.668;2022-12-20T15:31:23;9.70;;;3.65;;
29382;SDS011;16365;51.598;7.668;2022-12-20T15:34:02;9.02;;;3.97;;
29382;SDS011;16365;51.598;7.668;2022-12-20T15:36:31;6.40;;;3.50;;
29382;SDS011;16365;51.598;7.668;2022-12-20T15:38:59;5.47;;;3.40;;
29382;SDS011;16365;51.598;7.668;2022-12-20T15:41:39;9.20;;;4.43;;
29382;SDS011;16365;51.598;7.668;2022-12-20T15:44:15;9.25;;;4.68;;
29382;SDS011;16365;51.598;7.668;2022-12-20T15:46:45;8.13;;;4.72;;
29382;SDS011;16365;51.598;7.668;2022-12-20T15:49:12;9.88;;;5.65;;
29382;SDS011;16365;51.598;7.668;2022-12-20T15:51:41;9.55;;;5.35;;
29382;SDS011;16365;51.598;7.668;2022-12-20T15:54:22;8.82;;;4.30;;
29382;SDS011;16365;51.598;7.668;2022-12-20T15:56:53;6.07;;;3.45;;
29382;SDS011;16365;51.598;7.668;2022-12-20T15:59:20;5.43;;;3.47;;
29382;SDS011;16365;51.598;7.668;2022-12-20T16:04:48;6.90;;;4.10;;
29382;SDS011;16365;51.598;7.668;2022-12-20T16:07:15;7.22;;;4.00;;
29382;SDS011;16365;51.598;7.668;2022-12-20T16:09:42;6.22;;;3.90;;
29382;SDS011;16365;51.598;7.668;2022-12-20T16:12:12;7.35;;;3.85;;
29382;SDS011;16365;51.598;7.668;2022-12-20T16:14:41;9.27;;;3.70;;
29382;SDS011;16365;51.598;7.668;2022-12-20T16:17:11;6.35;;;3.38;;
29382;SDS011;16365;51.598;7.668;2022-12-20T16:19:39;9.07;;;3.45;;
29382;SDS011;16365;51.598;7.668;2022-12-20T16:22:11;10.52;;;4.00;;
29382;SDS011;16365;51.598;7.668;2022-12-20T16:24:41;9.18;;;3.67;;
29382;SDS011;16365;51.598;7.668;2022-12-20T16:27:08;7.10;;;3.60;;
29382;SDS011;16365;51.598;7.668;2022-12-20T16:29:35;8.52;;;3.45;;
29382;SDS011;16365;51.598;7.668;2022-12-20T16:32:01;6.70;;;3.20;;
29382;SDS011;16365;51.598;7.668;2022-12-20T16:34:33;8.40;;;3.72;;
29382;SDS011;16365;51.598;7.668;2022-12-20T16:36:59;6.13;;;3.00;;
29382;SDS011;16365;51.598;7.668;2022-12-20T16:39:26;5.13;;;3.05;;
29382;SDS011;16365;51.598;7.668;2022-12-20T16:41:52;6.72;;;3.10;;
29382;SDS011;16365;51.598;7.668;2022-12-20T16:44:21;7.20;;;3.60;;
29382;SDS011;16365;51.598;7.668;2022-12-20T16:46:48;5.10;;;3.03;;
29382;SDS011;16365;51.598;7.668;2022-12-20T16:49:14;20.33;;;7.03;;
29382;SDS011;16365;51.598;7.668;2022-12-20T16:51:46;16.58;;;5.80;;
29382;SDS011;16365;51.598;7.668;2022-12-20T16:54:18;9.48;;;5.20;;
29382;SDS011;16365;51.598;7.668;2022-12-20T16:56:48;34.78;;;13.20;;
29382;SDS011;16365;51.598;7.668;2022-12-20T16:59:20;23.00;;;9.93;;
29382;SDS011;16365;51.598;7.668;2022-12-20T17:01:51;13.68;;;6.65;;
29382;SDS011;16365;51.598;7.668;2022-12-20T17:04:19;11.80;;;5.32;;
29382;SDS011;16365;51.598;7.668;2022-12-20T17:06:46;16.58;;;8.43;;
29382;SDS011;16365;51.598;7.668;2022-12-20T17:09:14;17.63;;;9.80;;
29382;SDS011;16365;51.598;7.668;2022-12-20T17:11:58;24.10;;;11.57;;